createdAt,value
2022-09-06T00:02:46.202Z,8.63
2022-09-06T00:07:47.978Z,9.52
2022-09-06T00:12:49.538Z,8.60
2022-09-06T00:17:51.654Z,8.35
2022-09-06T00:23:00.348Z,8.40
2022-09-06T00:28:04.335Z,8.70
2022-09-06T00:33:05.887Z,8.52
2022-09-06T00:38:07.439Z,8.60
2022-09-06T00:43:09.031Z,7.90
2022-09-06T00:48:10.616Z,8.35
2022-09-06T00:53:12.309Z,8.00
2022-09-06T00:58:13.883Z,9.07
2022-09-06T01:03:15.574Z,8.45
2022-09-06T01:08:37.392Z,8.32
2022-09-06T01:13:55.400Z,8.82
2022-09-06T01:19:03.115Z,8.57
2022-09-06T01:24:29.663Z,8.63
2022-09-06T01:29:43.938Z,8.63
2022-09-06T01:34:53.470Z,8.50
2022-09-06T01:39:55.112Z,8.30
2022-09-06T01:45:00.746Z,9.00
2022-09-06T01:50:39.459Z,9.05
2022-09-06T01:56:06.595Z,8.20
2022-09-06T02:01:33.848Z,8.43
2022-09-06T02:06:40.737Z,8.52
2022-09-06T02:11:50.827Z,8.65
2022-09-06T02:16:54.174Z,8.18
2022-09-06T02:21:57.586Z,8.52
2022-09-06T02:26:59.212Z,8.05
2022-09-06T02:32:08.664Z,8.68
2022-09-06T02:37:11.347Z,8.30
2022-09-06T02:42:14.767Z,9.13
2022-09-06T02:47:16.804Z,9.10
2022-09-06T02:52:18.352Z,11.02
2022-09-06T02:57:19.995Z,8.13
2022-09-06T03:02:21.601Z,8.43
2022-09-06T03:07:23.236Z,8.80
2022-09-06T03:12:24.814Z,9.35
2022-09-06T03:17:26.375Z,7.82
2022-09-06T03:22:27.955Z,8.20
2022-09-06T03:27:29.586Z,7.93
2022-09-06T03:32:31.140Z,8.15
2022-09-06T03:37:32.692Z,8.50
2022-09-06T03:42:34.270Z,7.78
2022-09-06T03:47:35.853Z,7.80
2022-09-06T03:52:37.439Z,10.05
2022-09-06T03:57:39.045Z,7.57
2022-09-06T04:02:40.621Z,9.68
2022-09-06T04:07:43.263Z,8.82
2022-09-06T04:12:45.280Z,7.47
2022-09-06T04:17:47.220Z,7.78
2022-09-06T04:22:48.765Z,8.07
2022-09-06T04:27:50.363Z,6.97
2022-09-06T04:32:52.049Z,8.20
2022-09-06T04:37:53.584Z,8.27
2022-09-06T04:42:55.104Z,8.20
2022-09-06T04:47:56.714Z,7.93
2022-09-06T04:52:58.281Z,9.27
2022-09-06T04:58:03.499Z,7.97
2022-09-06T05:03:05.176Z,8.70
2022-09-06T05:08:06.767Z,9.07
2022-09-06T05:13:08.317Z,8.75
2022-09-06T05:18:12.928Z,8.23
2022-09-06T05:23:17.852Z,8.32
2022-09-06T05:28:19.997Z,8.82
2022-09-06T05:33:22.667Z,8.60
2022-09-06T05:38:29.188Z,8.50
2022-09-06T05:43:31.198Z,7.82
2022-09-06T05:48:36.781Z,9.15
2022-09-06T05:53:41.419Z,8.07
2022-09-06T05:58:43.163Z,11.23
2022-09-06T06:03:57.449Z,8.02
2022-09-06T06:08:59.597Z,7.68
2022-09-06T06:14:02.697Z,14.55
2022-09-06T06:19:04.315Z,7.68
2022-09-06T06:24:06.347Z,13.30
2022-09-06T06:29:09.614Z,8.82
2022-09-06T06:34:11.609Z,8.85
2022-09-06T06:39:13.153Z,7.85
2022-09-06T06:44:14.720Z,7.35
2022-09-06T06:49:16.559Z,10.70
2022-09-06T06:54:18.322Z,6.70
2022-09-06T06:59:20.809Z,6.45
2022-09-06T07:04:23.034Z,6.07
2022-09-06T07:09:24.820Z,6.20
2022-09-06T07:14:26.390Z,5.95
2022-09-06T07:24:49.601Z,6.35
2022-09-06T07:29:51.193Z,6.18
2022-09-06T07:34:52.827Z,5.82
2022-09-06T07:39:54.680Z,6.07
2022-09-06T07:44:57.720Z,7.45
2022-09-06T07:55:20.859Z,8.40
2022-09-06T08:00:22.532Z,5.72
2022-09-06T08:10:50.707Z,5.80
2022-09-06T08:16:03.025Z,5.85
2022-09-06T08:21:12.633Z,5.22
2022-09-06T08:26:15.963Z,5.63
2022-09-06T08:31:17.858Z,5.88
2022-09-06T08:36:20.041Z,6.07
2022-09-06T08:41:58.541Z,7.93
2022-09-06T08:47:04.434Z,5.43
2022-09-06T08:52:11.862Z,6.05
2022-09-06T08:57:20.316Z,5.57
2022-09-06T09:02:22.391Z,7.53
2022-09-06T09:07:59.673Z,5.20
2022-09-06T09:13:02.706Z,5.47
2022-09-06T09:18:04.357Z,6.72
2022-09-06T09:23:06.001Z,8.02
2022-09-06T09:28:16.617Z,5.97
2022-09-06T09:33:29.442Z,6.75
2022-09-06T09:38:35.500Z,5.35
2022-09-06T09:43:39.704Z,6.07
2022-09-06T09:49:02.248Z,5.78
2022-09-06T09:54:07.217Z,7.47
2022-09-06T09:59:17.149Z,5.63
2022-09-06T10:04:46.235Z,6.47
2022-09-06T10:09:49.327Z,7.82
2022-09-06T10:14:50.948Z,6.10
2022-09-06T10:19:52.971Z,5.13
2022-09-06T10:25:32.057Z,6.20
2022-09-06T10:30:36.366Z,5.50
2022-09-06T10:35:38.311Z,5.22
2022-09-06T10:41:10.037Z,8.30
2022-09-06T10:46:15.192Z,5.47
2022-09-06T10:51:20.679Z,5.38
2022-09-06T10:56:44.621Z,7.45
2022-09-06T11:02:02.761Z,5.85
2022-09-06T11:07:11.725Z,7.28
2022-09-06T11:12:34.926Z,7.60
2022-09-06T11:17:58.812Z,8.95
2022-09-06T11:23:19.010Z,5.85
2022-09-06T11:28:29.402Z,5.43
2022-09-06T11:33:35.509Z,5.28
2022-09-06T11:38:37.253Z,7.80
2022-09-06T11:43:53.637Z,6.03
2022-09-06T11:49:19.932Z,6.55
2022-09-06T11:54:26.966Z,5.20
2022-09-06T11:59:52.654Z,5.75
2022-09-06T12:05:04.627Z,5.43
2022-09-06T12:10:40.734Z,6.00
2022-09-06T12:15:52.902Z,5.28
2022-09-06T12:20:54.922Z,4.85
2022-09-06T12:25:57.475Z,5.88
2022-09-06T12:30:59.077Z,6.60
2022-09-06T12:36:32.984Z,5.25
2022-09-06T12:41:56.755Z,5.18
2022-09-06T12:47:03.755Z,6.55
2022-09-06T12:52:07.062Z,9.85
2022-09-06T12:57:26.940Z,5.70
2022-09-06T13:02:37.435Z,4.80
2022-09-06T13:07:43.027Z,4.80
2022-09-06T13:12:45.763Z,4.97
2022-09-06T13:17:47.567Z,5.35
2022-09-06T13:22:50.873Z,5.00
2022-09-06T13:27:58.991Z,4.80
2022-09-06T13:33:01.075Z,4.55
2022-09-06T13:38:35.022Z,7.93
2022-09-06T13:43:45.095Z,7.63
2022-09-06T13:48:46.679Z,6.68
2022-09-06T13:53:48.951Z,4.97
2022-09-06T13:58:50.503Z,5.68
2022-09-06T14:03:52.715Z,6.20
2022-09-06T14:09:06.818Z,7.30
2022-09-06T14:14:09.894Z,6.53
2022-09-06T14:19:11.539Z,6.45
2022-09-06T14:24:13.197Z,6.05
2022-09-06T14:29:14.803Z,5.72
2022-09-06T14:34:16.506Z,6.22
2022-09-06T14:39:18.567Z,6.55
2022-09-06T14:44:20.110Z,6.03
2022-09-06T14:49:21.783Z,6.80
2022-09-06T14:54:27.367Z,7.32
2022-09-06T14:59:30.658Z,7.03
2022-09-06T15:04:33.357Z,7.85
2022-09-06T15:09:34.954Z,7.68
2022-09-06T15:14:37.549Z,6.85
2022-09-06T15:19:39.654Z,7.65
2022-09-06T15:24:41.277Z,7.13
2022-09-06T15:29:42.809Z,6.93
2022-09-06T15:34:44.366Z,7.72
2022-09-06T15:39:46.018Z,7.63
2022-09-06T15:44:47.787Z,8.60
2022-09-06T15:49:49.384Z,10.18
2022-09-06T15:55:09.712Z,8.45
2022-09-06T16:00:12.195Z,9.45
2022-09-06T16:05:13.989Z,11.07
2022-09-06T16:10:15.550Z,7.90
2022-09-06T16:15:17.246Z,8.60
2022-09-06T16:20:19.342Z,8.80
2022-09-06T16:25:21.057Z,8.60
2022-09-06T16:30:23.068Z,9.00
2022-09-06T16:35:25.258Z,9.80
2022-09-06T16:40:27.558Z,9.55
2022-09-06T16:45:30.537Z,10.00
2022-09-06T16:50:33.064Z,10.15
2022-09-06T16:55:38.163Z,10.68
2022-09-06T17:00:44.791Z,12.25
2022-09-06T17:05:53.044Z,11.75
2022-09-06T17:10:54.991Z,13.65
2022-09-06T17:16:20.052Z,12.00
2022-09-06T17:21:24.635Z,9.85
2022-09-06T17:26:26.562Z,10.45
2022-09-06T17:31:28.966Z,11.00
2022-09-06T17:36:32.218Z,10.82
2022-09-06T17:41:46.855Z,10.52
2022-09-06T17:47:09.122Z,10.77
2022-09-06T17:52:11.577Z,10.18
2022-09-06T17:57:13.491Z,10.63
2022-09-06T18:02:15.198Z,10.25
2022-09-06T18:07:17.789Z,11.13
2022-09-06T18:12:20.363Z,10.48
2022-09-06T18:17:23.955Z,11.40
2022-09-06T18:22:25.625Z,10.98
2022-09-06T18:27:28.292Z,8.40
2022-09-06T18:32:30.384Z,8.38
2022-09-06T18:37:36.117Z,8.35
2022-09-06T18:42:44.105Z,8.68
2022-09-06T18:47:45.966Z,7.80
2022-09-06T18:52:47.570Z,8.25
2022-09-06T18:57:49.351Z,8.75
2022-09-06T19:02:51.249Z,9.02
2022-09-06T19:07:53.774Z,9.15
2022-09-06T19:12:57.085Z,9.85
2022-09-06T19:17:58.681Z,8.75
2022-09-06T19:23:00.462Z,9.68
2022-09-06T19:28:02.406Z,9.48
2022-09-06T19:33:03.993Z,10.55
2022-09-06T19:38:06.051Z,9.27
2022-09-06T19:43:07.686Z,9.75
2022-09-06T19:48:10.296Z,10.80
2022-09-06T19:53:12.148Z,10.00
2022-09-06T19:58:13.740Z,10.88
2022-09-06T20:03:15.603Z,11.07
2022-09-06T20:08:17.843Z,10.95
2022-09-06T20:13:20.460Z,11.15
2022-09-06T20:18:22.640Z,10.27
2022-09-06T20:23:24.359Z,10.38
2022-09-06T20:28:26.315Z,10.75
2022-09-06T20:33:28.619Z,11.13
2022-09-06T20:38:31.731Z,9.40
2022-09-06T20:43:36.558Z,9.20
2022-09-06T20:48:43.614Z,9.88
2022-09-06T20:53:56.822Z,9.70
2022-09-06T20:59:00.760Z,9.70
2022-09-06T21:04:04.645Z,8.77
2022-09-06T21:09:12.131Z,9.07
2022-09-06T21:14:14.168Z,9.65
2022-09-06T21:19:16.399Z,9.00
2022-09-06T21:24:18.047Z,8.73
2022-09-06T21:29:19.736Z,8.02
2022-09-06T21:34:22.460Z,8.55
2022-09-06T21:39:24.183Z,8.77
2022-09-06T21:44:26.316Z,11.40
2022-09-06T21:49:28.550Z,9.40
2022-09-06T21:54:30.083Z,9.35
2022-09-06T21:59:32.082Z,9.75
2022-09-06T22:04:33.657Z,9.35
2022-09-06T22:09:35.287Z,9.63
2022-09-06T22:14:37.102Z,10.27
2022-09-06T22:19:38.754Z,9.63
2022-09-06T22:24:40.405Z,10.38
2022-09-06T22:29:42.174Z,9.48
2022-09-06T22:34:44.458Z,10.20
2022-09-06T22:39:48.035Z,9.70
2022-09-06T22:44:50.046Z,10.70
2022-09-06T22:49:51.878Z,11.05
2022-09-06T22:54:53.696Z,10.43
2022-09-06T22:59:55.534Z,11.30
2022-09-06T23:04:57.762Z,9.27
2022-09-06T23:09:59.443Z,10.20
2022-09-06T23:15:01.116Z,11.73
2022-09-06T23:20:03.903Z,12.50
2022-09-06T23:25:07.116Z,11.52
2022-09-06T23:30:09.578Z,13.05
2022-09-06T23:35:11.345Z,10.88
2022-09-06T23:40:13.356Z,10.68
2022-09-06T23:45:15.229Z,9.82
2022-09-06T23:50:16.881Z,11.30
2022-09-06T23:55:18.732Z,10.80
